sensor_id;sensor_type;location;lat;lon;timestamp;pressure;altitude;pressure_sealevel;temperature;humidity
38530;BME280;24301;54.332;48.386;2022-12-20T00:00:13;99665.59;;;-11.24;77.28
38530;BME280;24301;54.332;48.386;2022-12-20T00:02:39;99668.63;;;-11.38;77.03
38530;BME280;24301;54.332;48.386;2022-12-20T00:05:05;99665.72;;;-11.43;77.06
38530;BME280;24301;54.332;48.386;2022-12-20T00:07:31;99666.09;;;-11.49;77.69
38530;BME280;24301;54.332;48.386;2022-12-20T00:09:57;99669.75;;;-11.56;76.95
38530;BME280;24301;54.332;48.386;2022-12-20T00:12:23;99662.66;;;-11.60;77.29
38530;BME280;24301;54.332;48.386;2022-12-20T00:14:49;99660.75;;;-11.52;78.42
38530;BME280;24301;54.332;48.386;2022-12-20T00:17:15;99668.72;;;-11.58;77.80
38530;BME280;24301;54.332;48.386;2022-12-20T00:19:43;99663.41;;;-11.50;77.94
38530;BME280;24301;54.332;48.386;2022-12-20T00:22:09;99676.88;;;-11.41;78.65
38530;BME280;24301;54.332;48.386;2022-12-20T00:24:35;99674.84;;;-11.35;78.63
38530;BME280;24301;54.332;48.386;2022-12-20T00:27:01;99677.13;;;-11.28;78.53
38530;BME280;24301;54.332;48.386;2022-12-20T00:29:28;99674.97;;;-11.23;78.43
38530;BME280;24301;54.332;48.386;2022-12-20T00:31:54;99685.88;;;-11.14;78.46
38530;BME280;24301;54.332;48.386;2022-12-20T00:34:22;99680.94;;;-11.12;77.95
38530;BME280;24301;54.332;48.386;2022-12-20T00:36:48;99682.97;;;-11.08;78.25
38530;BME280;24301;54.332;48.386;2022-12-20T00:39:13;99682.47;;;-11.04;78.34
38530;BME280;24301;54.332;48.386;2022-12-20T00:41:39;99676.38;;;-10.95;78.46
38530;BME280;24301;54.332;48.386;2022-12-20T00:44:05;99676.34;;;-10.85;77.69
38530;BME280;24301;54.332;48.386;2022-12-20T00:46:31;99675.31;;;-10.77;78.19
38530;BME280;24301;54.332;48.386;2022-12-20T00:48:59;99670.97;;;-10.68;77.95
38530;BME280;24301;54.332;48.386;2022-12-20T00:51:27;99662.06;;;-10.62;78.04
38530;BME280;24301;54.332;48.386;2022-12-20T00:53:54;99659.53;;;-10.62;77.53
38530;BME280;24301;54.332;48.386;2022-12-20T00:56:20;99665.47;;;-10.62;77.11
38530;BME280;24301;54.332;48.386;2022-12-20T00:58:47;99654.41;;;-10.52;77.17
38530;BME280;24301;54.332;48.386;2022-12-20T01:01:22;99667.91;;;-10.31;78.37
38530;BME280;24301;54.332;48.386;2022-12-20T01:03:50;99667.00;;;-10.21;77.78
38530;BME280;24301;54.332;48.386;2022-12-20T01:06:16;99658.81;;;-10.17;77.74
38530;BME280;24301;54.332;48.386;2022-12-20T01:08:42;99661.31;;;-10.06;77.24
38530;BME280;24301;54.332;48.386;2022-12-20T01:11:18;99661.91;;;-9.99;76.99
38530;BME280;24301;54.332;48.386;2022-12-20T01:13:47;99660.06;;;-9.89;76.92
38530;BME280;24301;54.332;48.386;2022-12-20T01:16:21;99661.66;;;-9.79;77.01
38530;BME280;24301;54.332;48.386;2022-12-20T01:18:47;99647.63;;;-9.74;76.45
38530;BME280;24301;54.332;48.386;2022-12-20T01:21:14;99648.16;;;-9.78;76.34
38530;BME280;24301;54.332;48.386;2022-12-20T01:23:41;99655.53;;;-9.71;76.12
38530;BME280;24301;54.332;48.386;2022-12-20T01:26:10;99662.25;;;-9.72;76.41
38530;BME280;24301;54.332;48.386;2022-12-20T01:28:38;99658.72;;;-9.74;76.31
38530;BME280;24301;54.332;48.386;2022-12-20T01:31:13;99658.59;;;-9.75;76.42
38530;BME280;24301;54.332;48.386;2022-12-20T01:33:39;99658.34;;;-9.78;76.18
38530;BME280;24301;54.332;48.386;2022-12-20T01:36:13;99654.25;;;-9.76;76.45
38530;BME280;24301;54.332;48.386;2022-12-20T01:38:40;99640.00;;;-9.74;75.75
38530;BME280;24301;54.332;48.386;2022-12-20T01:41:06;99652.38;;;-9.79;76.17
38530;BME280;24301;54.332;48.386;2022-12-20T01:46:43;99647.47;;;-9.88;74.88
38530;BME280;24301;54.332;48.386;2022-12-20T01:49:32;99652.03;;;-9.84;75.08
38530;BME280;24301;54.332;48.386;2022-12-20T01:52:36;99650.56;;;-9.92;75.70
38530;BME280;24301;54.332;48.386;2022-12-20T01:58:04;99648.81;;;-10.03;75.57
38530;BME280;24301;54.332;48.386;2022-12-20T02:00:31;99654.44;;;-10.07;75.02
38530;BME280;24301;54.332;48.386;2022-12-20T02:03:04;99654.44;;;-10.07;75.71
38530;BME280;24301;54.332;48.386;2022-12-20T02:05:39;99647.28;;;-10.23;74.98
38530;BME280;24301;54.332;48.386;2022-12-20T02:08:06;99649.44;;;-10.28;74.72
38530;BME280;24301;54.332;48.386;2022-12-20T02:11:04;99659.84;;;-10.25;75.59
38530;BME280;24301;54.332;48.386;2022-12-20T02:14:03;99650.69;;;-10.23;76.38
38530;BME280;24301;54.332;48.386;2022-12-20T02:16:47;99657.75;;;-10.08;76.33
38530;BME280;24301;54.332;48.386;2022-12-20T02:30:38;99652.75;;;-9.97;75.36
38530;BME280;24301;54.332;48.386;2022-12-20T02:33:09;99649.41;;;-9.96;75.41
38530;BME280;24301;54.332;48.386;2022-12-20T02:35:37;99647.78;;;-9.95;75.73
38530;BME280;24301;54.332;48.386;2022-12-20T02:38:29;99654.97;;;-9.89;76.12
38530;BME280;24301;54.332;48.386;2022-12-20T02:41:09;99649.66;;;-9.92;76.11
38530;BME280;24301;54.332;48.386;2022-12-20T02:43:39;99659.72;;;-9.94;75.64
38530;BME280;24301;54.332;48.386;2022-12-20T02:46:26;99639.41;;;-10.04;75.87
38530;BME280;24301;54.332;48.386;2022-12-20T02:48:55;99647.28;;;-10.01;76.16
38530;BME280;24301;54.332;48.386;2022-12-20T02:51:25;99651.59;;;-10.00;76.02
38530;BME280;24301;54.332;48.386;2022-12-20T02:53:54;99652.75;;;-9.97;76.03
38530;BME280;24301;54.332;48.386;2022-12-20T02:59:04;99640.41;;;-10.02;76.27
38530;BME280;24301;54.332;48.386;2022-12-20T03:04:34;99637.09;;;-10.01;76.71
38530;BME280;24301;54.332;48.386;2022-12-20T03:07:04;99640.16;;;-9.95;76.16
38530;BME280;24301;54.332;48.386;2022-12-20T03:09:33;99643.94;;;-9.90;76.29
38530;BME280;24301;54.332;48.386;2022-12-20T03:12:00;99645.47;;;-9.92;76.04
38530;BME280;24301;54.332;48.386;2022-12-20T03:14:26;99643.31;;;-9.98;76.34
38530;BME280;24301;54.332;48.386;2022-12-20T03:16:55;99642.31;;;-10.00;76.66
38530;BME280;24301;54.332;48.386;2022-12-20T03:19:21;99639.41;;;-10.04;76.57
38530;BME280;24301;54.332;48.386;2022-12-20T03:21:47;99642.97;;;-10.02;76.23
38530;BME280;24301;54.332;48.386;2022-12-20T03:24:13;99648.28;;;-9.99;76.66
38530;BME280;24301;54.332;48.386;2022-12-20T03:26:39;99641.69;;;-9.97;76.61
38530;BME280;24301;54.332;48.386;2022-12-20T03:29:06;99645.56;;;-9.90;76.48
38530;BME280;24301;54.332;48.386;2022-12-20T03:31:32;99643.69;;;-9.93;76.61
38530;BME280;24301;54.332;48.386;2022-12-20T03:33:58;99632.59;;;-9.93;76.69
38530;BME280;24301;54.332;48.386;2022-12-20T03:36:24;99638.44;;;-9.84;76.65
38530;BME280;24301;54.332;48.386;2022-12-20T03:38:55;99632.25;;;-9.76;76.76
38530;BME280;24301;54.332;48.386;2022-12-20T03:41:23;99626.94;;;-9.79;76.81
38530;BME280;24301;54.332;48.386;2022-12-20T03:43:49;99640.53;;;-9.78;76.89
38530;BME280;24301;54.332;48.386;2022-12-20T03:46:16;99635.56;;;-9.77;76.41
38530;BME280;24301;54.332;48.386;2022-12-20T03:48:42;99638.59;;;-9.71;76.47
38530;BME280;24301;54.332;48.386;2022-12-20T03:51:08;99639.59;;;-9.69;76.55
38530;BME280;24301;54.332;48.386;2022-12-20T03:53:35;99633.84;;;-9.66;76.92
38530;BME280;24301;54.332;48.386;2022-12-20T03:56:01;99637.09;;;-9.57;76.36
38530;BME280;24301;54.332;48.386;2022-12-20T03:58:27;99646.72;;;-9.53;77.03
38530;BME280;24301;54.332;48.386;2022-12-20T04:00:53;99642.31;;;-9.55;76.64
38530;BME280;24301;54.332;48.386;2022-12-20T04:03:41;99646.72;;;-9.53;76.52
38530;BME280;24301;54.332;48.386;2022-12-20T04:06:07;99641.09;;;-9.48;76.47
38530;BME280;24301;54.332;48.386;2022-12-20T04:08:32;99641.84;;;-9.49;76.58
38530;BME280;24301;54.332;48.386;2022-12-20T04:10:58;99643.34;;;-9.41;76.40
38530;BME280;24301;54.332;48.386;2022-12-20T04:13:54;99636.81;;;-9.38;76.64
38530;BME280;24301;54.332;48.386;2022-12-20T04:16:23;99641.94;;;-9.26;76.42
38530;BME280;24301;54.332;48.386;2022-12-20T04:18:51;99644.41;;;-9.15;76.62
38530;BME280;24301;54.332;48.386;2022-12-20T04:21:26;99661.38;;;-9.04;76.22
38530;BME280;24301;54.332;48.386;2022-12-20T04:23:56;99651.53;;;-8.99;76.23
38530;BME280;24301;54.332;48.386;2022-12-20T04:26:25;99657.28;;;-8.90;76.31
38530;BME280;24301;54.332;48.386;2022-12-20T04:28:51;99652.09;;;-8.91;76.15
38530;BME280;24301;54.332;48.386;2022-12-20T04:31:17;99655.31;;;-8.82;76.30
38530;BME280;24301;54.332;48.386;2022-12-20T04:33:44;99652.97;;;-8.79;75.72
38530;BME280;24301;54.332;48.386;2022-12-20T04:36:11;99659.63;;;-8.81;75.56
38530;BME280;24301;54.332;48.386;2022-12-20T04:38:39;99657.19;;;-8.91;75.14
38530;BME280;24301;54.332;48.386;2022-12-20T04:41:05;99658.84;;;-8.92;75.41
38530;BME280;24301;54.332;48.386;2022-12-20T04:43:41;99668.38;;;-8.89;75.31
38530;BME280;24301;54.332;48.386;2022-12-20T04:46:07;99657.75;;;-8.96;75.18
38530;BME280;24301;54.332;48.386;2022-12-20T04:48:33;99657.75;;;-8.96;74.80
38530;BME280;24301;54.332;48.386;2022-12-20T04:50:59;99653.09;;;-8.89;75.25
38530;BME280;24301;54.332;48.386;2022-12-20T04:53:26;99668.16;;;-8.92;75.37
38530;BME280;24301;54.332;48.386;2022-12-20T04:56:10;99667.47;;;-8.90;75.30
38530;BME280;24301;54.332;48.386;2022-12-20T04:58:36;99661.16;;;-8.95;74.86
38530;BME280;24301;54.332;48.386;2022-12-20T05:01:06;99666.16;;;-8.97;75.22
38530;BME280;24301;54.332;48.386;2022-12-20T05:03:40;99675.59;;;-8.96;75.23
38530;BME280;24301;54.332;48.386;2022-12-20T05:06:07;99665.03;;;-9.00;74.83
38530;BME280;24301;54.332;48.386;2022-12-20T05:08:33;99674.47;;;-8.99;74.84
38530;BME280;24301;54.332;48.386;2022-12-20T05:11:00;99675.69;;;-8.94;75.01
38530;BME280;24301;54.332;48.386;2022-12-20T05:13:27;99678.81;;;-8.86;75.17
38530;BME280;24301;54.332;48.386;2022-12-20T05:15:54;99683.03;;;-8.75;75.16
38530;BME280;24301;54.332;48.386;2022-12-20T05:18:25;99692.91;;;-8.68;75.02
38530;BME280;24301;54.332;48.386;2022-12-20T05:21:00;99682.25;;;-8.62;75.02
38530;BME280;24301;54.332;48.386;2022-12-20T05:23:48;99684.38;;;-8.56;74.78
38530;BME280;24301;54.332;48.386;2022-12-20T05:26:44;99688.69;;;-8.55;75.03
38530;BME280;24301;54.332;48.386;2022-12-20T05:29:10;99696.56;;;-8.52;74.39
38530;BME280;24301;54.332;48.386;2022-12-20T05:31:36;99693.41;;;-8.48;74.63
38530;BME280;24301;54.332;48.386;2022-12-20T05:34:03;99689.56;;;-8.43;74.84
38530;BME280;24301;54.332;48.386;2022-12-20T05:36:32;99698.66;;;-8.34;74.57
38530;BME280;24301;54.332;48.386;2022-12-20T05:39:00;99689.22;;;-8.35;74.51
38530;BME280;24301;54.332;48.386;2022-12-20T05:41:26;99688.88;;;-8.28;74.42
38530;BME280;24301;54.332;48.386;2022-12-20T05:43:52;99689.31;;;-8.22;74.40
38530;BME280;24301;54.332;48.386;2022-12-20T05:46:18;99690.75;;;-8.14;74.33
38530;BME280;24301;54.332;48.386;2022-12-20T05:48:52;99686.22;;;-8.18;73.88
38530;BME280;24301;54.332;48.386;2022-12-20T05:51:18;99673.56;;;-8.16;73.87
38530;BME280;24301;54.332;48.386;2022-12-20T05:53:53;99680.38;;;-7.91;74.43
38530;BME280;24301;54.332;48.386;2022-12-20T05:56:27;99679.03;;;-7.86;73.83
38530;BME280;24301;54.332;48.386;2022-12-20T05:58:53;99679.56;;;-7.79;73.63
38530;BME280;24301;54.332;48.386;2022-12-20T06:01:19;99678.66;;;-7.67;73.64
38530;BME280;24301;54.332;48.386;2022-12-20T06:03:45;99674.38;;;-7.55;73.89
38530;BME280;24301;54.332;48.386;2022-12-20T06:06:14;99681.47;;;-7.51;72.86
38530;BME280;24301;54.332;48.386;2022-12-20T06:08:41;99673.47;;;-7.43;73.14
38530;BME280;24301;54.332;48.386;2022-12-20T06:11:12;99672.13;;;-7.25;73.28
38530;BME280;24301;54.332;48.386;2022-12-20T06:13:47;99666.44;;;-7.21;72.93
38530;BME280;24301;54.332;48.386;2022-12-20T06:16:14;99664.59;;;-7.23;72.66
38530;BME280;24301;54.332;48.386;2022-12-20T06:18:40;99676.31;;;-7.13;72.71
38530;BME280;24301;54.332;48.386;2022-12-20T06:21:06;99671.22;;;-7.13;72.70
38530;BME280;24301;54.332;48.386;2022-12-20T06:23:32;99675.63;;;-7.11;72.52
38530;BME280;24301;54.332;48.386;2022-12-20T06:26:05;99684.59;;;-7.04;72.55
38530;BME280;24301;54.332;48.386;2022-12-20T06:28:35;99680.09;;;-6.95;72.50
38530;BME280;24301;54.332;48.386;2022-12-20T06:31:09;99675.75;;;-6.96;72.21
38530;BME280;24301;54.332;48.386;2022-12-20T06:33:41;99687.00;;;-6.94;72.26
38530;BME280;24301;54.332;48.386;2022-12-20T06:36:07;99679.63;;;-6.89;72.66
38530;BME280;24301;54.332;48.386;2022-12-20T06:38:33;99682.50;;;-6.71;72.63
38530;BME280;24301;54.332;48.386;2022-12-20T06:40:59;99683.38;;;-6.57;72.57
38530;BME280;24301;54.332;48.386;2022-12-20T06:43:25;99684.00;;;-6.47;72.04
38530;BME280;24301;54.332;48.386;2022-12-20T06:45:51;99670.63;;;-6.43;71.88
38530;BME280;24301;54.332;48.386;2022-12-20T06:48:17;99653.97;;;-6.50;71.74
38530;BME280;24301;54.332;48.386;2022-12-20T06:50:47;99682.31;;;-6.47;71.55
38530;BME280;24301;54.332;48.386;2022-12-20T06:53:14;99685.56;;;-6.50;71.51
38530;BME280;24301;54.332;48.386;2022-12-20T06:55:40;99671.09;;;-6.49;71.63
38530;BME280;24301;54.332;48.386;2022-12-20T06:58:06;99671.72;;;-6.40;71.62
38530;BME280;24301;54.332;48.386;2022-12-20T07:00:32;99677.59;;;-6.27;71.30
38530;BME280;24301;54.332;48.386;2022-12-20T07:02:58;99677.97;;;-6.08;71.47
38530;BME280;24301;54.332;48.386;2022-12-20T07:05:24;99675.75;;;-5.88;71.24
38530;BME280;24301;54.332;48.386;2022-12-20T07:07:50;99672.53;;;-5.70;71.00
38530;BME280;24301;54.332;48.386;2022-12-20T07:10:16;99666.41;;;-5.59;70.90
38530;BME280;24301;54.332;48.386;2022-12-20T07:12:42;99678.56;;;-5.41;70.64
38530;BME280;24301;54.332;48.386;2022-12-20T07:15:08;99667.84;;;-5.49;69.73
38530;BME280;24301;54.332;48.386;2022-12-20T07:17:34;99664.16;;;-5.39;70.02
38530;BME280;24301;54.332;48.386;2022-12-20T07:20:00;99677.66;;;-5.13;69.71
38530;BME280;24301;54.332;48.386;2022-12-20T07:22:26;99673.59;;;-4.95;69.56
38530;BME280;24301;54.332;48.386;2022-12-20T07:24:52;99676.53;;;-4.73;68.96
38530;BME280;24301;54.332;48.386;2022-12-20T07:27:18;99676.06;;;-4.66;67.74
38530;BME280;24301;54.332;48.386;2022-12-20T07:29:43;99672.16;;;-4.29;68.07
38530;BME280;24301;54.332;48.386;2022-12-20T07:32:10;99667.41;;;-4.07;67.23
38530;BME280;24301;54.332;48.386;2022-12-20T07:34:38;99659.00;;;-4.19;66.41
38530;BME280;24301;54.332;48.386;2022-12-20T07:37:04;99664.09;;;-4.36;66.95
38530;BME280;24301;54.332;48.386;2022-12-20T07:39:29;99661.47;;;-4.52;66.69
38530;BME280;24301;54.332;48.386;2022-12-20T07:41:55;99665.97;;;-4.63;66.95
38530;BME280;24301;54.332;48.386;2022-12-20T07:44:22;99665.97;;;-4.63;67.37
38530;BME280;24301;54.332;48.386;2022-12-20T07:46:48;99661.59;;;-4.66;67.37
38530;BME280;24301;54.332;48.386;2022-12-20T07:49:14;99659.09;;;-4.79;67.26
38530;BME280;24301;54.332;48.386;2022-12-20T07:51:46;99669.63;;;-4.89;67.90
38530;BME280;24301;54.332;48.386;2022-12-20T07:54:18;99665.53;;;-5.01;67.91
38530;BME280;24301;54.332;48.386;2022-12-20T07:56:52;99670.31;;;-5.07;68.53
38530;BME280;24301;54.332;48.386;2022-12-20T07:59:28;99668.59;;;-5.22;68.45
38530;BME280;24301;54.332;48.386;2022-12-20T08:01:59;99662.94;;;-5.31;68.52
38530;BME280;24301;54.332;48.386;2022-12-20T08:04:26;99666.97;;;-5.35;68.89
38530;BME280;24301;54.332;48.386;2022-12-20T08:06:56;99668.03;;;-5.46;68.78
38530;BME280;24301;54.332;48.386;2022-12-20T08:09:24;99666.34;;;-5.45;69.66
38530;BME280;24301;54.332;48.386;2022-12-20T08:11:51;99663.78;;;-5.45;69.82
38530;BME280;24301;54.332;48.386;2022-12-20T08:14:18;99673.53;;;-5.40;69.63
38530;BME280;24301;54.332;48.386;2022-12-20T08:16:44;99667.84;;;-5.49;69.67
38530;BME280;24301;54.332;48.386;2022-12-20T08:19:11;99668.16;;;-5.58;69.74
38530;BME280;24301;54.332;48.386;2022-12-20T08:21:37;99660.91;;;-5.65;70.31
38530;BME280;24301;54.332;48.386;2022-12-20T08:24:03;99665.25;;;-5.64;70.59
38530;BME280;24301;54.332;48.386;2022-12-20T08:26:29;99665.91;;;-5.53;71.06
38530;BME280;24301;54.332;48.386;2022-12-20T08:28:55;99657.66;;;-5.48;70.99
38530;BME280;24301;54.332;48.386;2022-12-20T08:31:21;99662.19;;;-5.43;70.63
38530;BME280;24301;54.332;48.386;2022-12-20T08:33:47;99663.25;;;-5.40;70.83
38530;BME280;24301;54.332;48.386;2022-12-20T08:36:14;99656.84;;;-5.33;71.14
38530;BME280;24301;54.332;48.386;2022-12-20T08:38:40;99651.25;;;-5.41;70.87
38530;BME280;24301;54.332;48.386;2022-12-20T08:41:09;99658.66;;;-5.45;71.14
38530;BME280;24301;54.332;48.386;2022-12-20T08:43:35;99649.59;;;-5.40;71.68
38530;BME280;24301;54.332;48.386;2022-12-20T08:46:02;99647.91;;;-5.25;71.36
38530;BME280;24301;54.332;48.386;2022-12-20T08:48:28;99637.03;;;-5.21;71.40
38530;BME280;24301;54.332;48.386;2022-12-20T08:50:59;99650.06;;;-5.17;71.20
38530;BME280;24301;54.332;48.386;2022-12-20T08:53:27;99637.81;;;-5.22;71.56
38530;BME280;24301;54.332;48.386;2022-12-20T08:56:11;99634.47;;;-5.21;71.44
38530;BME280;24301;54.332;48.386;2022-12-20T08:58:38;99630.94;;;-5.23;71.57
38530;BME280;24301;54.332;48.386;2022-12-20T09:01:06;99624.66;;;-5.28;71.41
38530;BME280;24301;54.332;48.386;2022-12-20T09:03:34;99632.16;;;-5.31;71.80
38530;BME280;24301;54.332;48.386;2022-12-20T09:06:04;99634.13;;;-5.27;71.76
38530;BME280;24301;54.332;48.386;2022-12-20T09:08:32;99626.59;;;-5.24;72.35
38530;BME280;24301;54.332;48.386;2022-12-20T09:11:19;99624.94;;;-5.08;72.37
38530;BME280;24301;54.332;48.386;2022-12-20T09:13:47;99625.81;;;-4.93;72.53
38530;BME280;24301;54.332;48.386;2022-12-20T09:16:16;99618.84;;;-4.80;72.40
38530;BME280;24301;54.332;48.386;2022-12-20T09:18:42;99612.22;;;-4.77;72.33
38530;BME280;24301;54.332;48.386;2022-12-20T09:21:09;99607.16;;;-4.75;72.39
38530;BME280;24301;54.332;48.386;2022-12-20T09:23:36;99609.25;;;-4.68;72.86
38530;BME280;24301;54.332;48.386;2022-12-20T09:26:10;99610.47;;;-4.46;72.96
38530;BME280;24301;54.332;48.386;2022-12-20T09:28:36;99606.66;;;-4.38;72.47
38530;BME280;24301;54.332;48.386;2022-12-20T09:31:04;99601.69;;;-4.35;72.34
38530;BME280;24301;54.332;48.386;2022-12-20T09:33:32;99604.88;;;-4.39;72.36
38530;BME280;24301;54.332;48.386;2022-12-20T09:35:59;99611.63;;;-4.41;71.85
38530;BME280;24301;54.332;48.386;2022-12-20T09:38:26;99604.78;;;-4.40;72.88
38530;BME280;24301;54.332;48.386;2022-12-20T09:41:04;99597.09;;;-4.40;72.62
38530;BME280;24301;54.332;48.386;2022-12-20T09:43:31;99603.72;;;-4.44;72.49
38530;BME280;24301;54.332;48.386;2022-12-20T09:46:00;99590.03;;;-4.44;72.84
38530;BME280;24301;54.332;48.386;2022-12-20T09:53:55;99578.78;;;-4.47;72.96
38530;BME280;24301;54.332;48.386;2022-12-20T09:57:16;99585.22;;;-4.38;72.82
38530;BME280;24301;54.332;48.386;2022-12-20T09:59:20;99576.66;;;-4.39;73.20
38530;BME280;24301;54.332;48.386;2022-12-20T10:01:48;99575.69;;;-4.41;73.00
38530;BME280;24301;54.332;48.386;2022-12-20T10:04:35;99580.81;;;-4.41;73.24
38530;BME280;24301;54.332;48.386;2022-12-20T10:10:10;99568.59;;;-4.45;73.46
38530;BME280;24301;54.332;48.386;2022-12-20T10:13:21;99568.94;;;-4.39;73.58
38530;BME280;24301;54.332;48.386;2022-12-20T10:16:43;99577.78;;;-4.34;73.85
38530;BME280;24301;54.332;48.386;2022-12-20T10:24:35;99569.75;;;-4.40;73.92
38530;BME280;24301;54.332;48.386;2022-12-20T10:27:15;99569.66;;;-4.41;74.29
38530;BME280;24301;54.332;48.386;2022-12-20T10:29:43;99572.47;;;-4.37;74.30
38530;BME280;24301;54.332;48.386;2022-12-20T10:32:18;99572.81;;;-4.30;74.63
38530;BME280;24301;54.332;48.386;2022-12-20T10:38:00;99550.09;;;-4.23;74.87
38530;BME280;24301;54.332;48.386;2022-12-20T10:40:31;99559.63;;;-4.20;74.51
38530;BME280;24301;54.332;48.386;2022-12-20T10:42:58;99547.59;;;-4.21;75.18
38530;BME280;24301;54.332;48.386;2022-12-20T10:45:36;99553.09;;;-4.15;75.31
38530;BME280;24301;54.332;48.386;2022-12-20T10:48:06;99554.44;;;-4.05;75.58
38530;BME280;24301;54.332;48.386;2022-12-20T10:53:57;99555.03;;;-4.11;75.18
38530;BME280;24301;54.332;48.386;2022-12-20T10:56:24;99555.03;;;-4.11;75.73
38530;BME280;24301;54.332;48.386;2022-12-20T10:58:54;99557.44;;;-4.14;75.50
38530;BME280;24301;54.332;48.386;2022-12-20T11:01:23;99558.38;;;-4.12;75.57
38530;BME280;24301;54.332;48.386;2022-12-20T11:03:53;99558.00;;;-4.03;75.90
38530;BME280;24301;54.332;48.386;2022-12-20T11:06:21;99564.16;;;-3.99;75.82
38530;BME280;24301;54.332;48.386;2022-12-20T11:08:48;99557.41;;;-3.97;76.38
38530;BME280;24301;54.332;48.386;2022-12-20T11:13:42;99552.28;;;-3.97;76.51
38530;BME280;24301;54.332;48.386;2022-12-20T11:16:34;99558.88;;;-3.86;76.39
38530;BME280;24301;54.332;48.386;2022-12-20T11:22:00;99550.44;;;-3.83;76.15
38530;BME280;24301;54.332;48.386;2022-12-20T11:24:37;99552.94;;;-3.85;75.93
38530;BME280;24301;54.332;48.386;2022-12-20T11:29:56;99546.19;;;-3.83;76.34
38530;BME280;24301;54.332;48.386;2022-12-20T11:35:18;99551.63;;;-3.77;76.49
38530;BME280;24301;54.332;48.386;2022-12-20T11:40:45;99549.16;;;-3.75;76.92
38530;BME280;24301;54.332;48.386;2022-12-20T11:51:33;99529.31;;;-3.78;77.11
38530;BME280;24301;54.332;48.386;2022-12-20T11:54:11;99553.09;;;-3.65;77.24
38530;BME280;24301;54.332;48.386;2022-12-20T11:56:44;99553.25;;;-3.62;77.35
38530;BME280;24301;54.332;48.386;2022-12-20T11:59:30;99548.75;;;-3.66;77.54
38530;BME280;24301;54.332;48.386;2022-12-20T12:02:11;99553.91;;;-3.66;77.58
38530;BME280;24301;54.332;48.386;2022-12-20T12:04:43;99546.00;;;-3.69;77.93
38530;BME280;24301;54.332;48.386;2022-12-20T12:07:15;99558.31;;;-3.64;78.39
38530;BME280;24301;54.332;48.386;2022-12-20T12:12:47;99553.56;;;-3.56;77.76
38530;BME280;24301;54.332;48.386;2022-12-20T12:18:17;99543.56;;;-3.50;78.73
38530;BME280;24301;54.332;48.386;2022-12-20T12:21:36;99545.13;;;-3.53;78.59
38530;BME280;24301;54.332;48.386;2022-12-20T12:26:25;99543.53;;;-3.51;78.82
38530;BME280;24301;54.332;48.386;2022-12-20T12:28:57;99540.94;;;-3.51;79.28
38530;BME280;24301;54.332;48.386;2022-12-20T12:34:52;99532.31;;;-3.35;79.94
38530;BME280;24301;54.332;48.386;2022-12-20T12:45:22;99520.03;;;-3.23;79.51
38530;BME280;24301;54.332;48.386;2022-12-20T12:48:06;99527.09;;;-3.19;79.42
38530;BME280;24301;54.332;48.386;2022-12-20T12:50:38;99521.97;;;-3.19;79.75
38530;BME280;24301;54.332;48.386;2022-12-20T12:53:15;99526.16;;;-3.21;79.52
38530;BME280;24301;54.332;48.386;2022-12-20T12:55:44;99527.75;;;-3.23;79.53
38530;BME280;24301;54.332;48.386;2022-12-20T13:11:33;99518.94;;;-3.28;79.96
38530;BME280;24301;54.332;48.386;2022-12-20T13:19:37;99517.75;;;-3.35;80.42
38530;BME280;24301;54.332;48.386;2022-12-20T13:25:02;99513.00;;;-3.27;80.71
38530;BME280;24301;54.332;48.386;2022-12-20T13:27:38;99511.94;;;-3.30;80.37
38530;BME280;24301;54.332;48.386;2022-12-20T13:40:47;99507.59;;;-3.50;80.31
38530;BME280;24301;54.332;48.386;2022-12-20T13:43:24;99505.97;;;-3.48;80.12
38530;BME280;24301;54.332;48.386;2022-12-20T13:51:20;99509.84;;;-3.56;80.01
38530;BME280;24301;54.332;48.386;2022-12-20T13:58:57;99503.72;;;-3.93;79.05
38530;BME280;24301;54.332;48.386;2022-12-20T14:01:24;99491.75;;;-4.09;78.97
38530;BME280;24301;54.332;48.386;2022-12-20T14:03:52;99495.44;;;-4.20;79.24
38530;BME280;24301;54.332;48.386;2022-12-20T14:06:20;99499.97;;;-4.16;79.36
38530;BME280;24301;54.332;48.386;2022-12-20T14:08:49;99493.53;;;-4.08;79.46
38530;BME280;24301;54.332;48.386;2022-12-20T14:11:23;99491.38;;;-4.00;79.43
38530;BME280;24301;54.332;48.386;2022-12-20T14:14:02;99493.69;;;-3.88;79.46
38530;BME280;24301;54.332;48.386;2022-12-20T14:16:31;99491.41;;;-3.82;79.08
38530;BME280;24301;54.332;48.386;2022-12-20T14:19:01;99493.91;;;-3.83;78.84
38530;BME280;24301;54.332;48.386;2022-12-20T14:21:28;99491.13;;;-3.88;78.68
38530;BME280;24301;54.332;48.386;2022-12-20T14:23:56;99493.59;;;-3.90;78.63
38530;BME280;24301;54.332;48.386;2022-12-20T14:26:27;99491.91;;;-3.89;78.65
38530;BME280;24301;54.332;48.386;2022-12-20T14:28:58;99493.84;;;-3.85;78.44
38530;BME280;24301;54.332;48.386;2022-12-20T14:36:43;99496.09;;;-3.91;78.45
38530;BME280;24301;54.332;48.386;2022-12-20T14:39:29;99486.69;;;-3.91;78.81
38530;BME280;24301;54.332;48.386;2022-12-20T14:41:59;99483.47;;;-3.86;78.89
38530;BME280;24301;54.332;48.386;2022-12-20T14:44:28;99484.66;;;-3.80;78.80
38530;BME280;24301;54.332;48.386;2022-12-20T14:47:14;99473.69;;;-3.77;78.78
38530;BME280;24301;54.332;48.386;2022-12-20T14:49:47;99468.91;;;-3.69;78.89
38530;BME280;24301;54.332;48.386;2022-12-20T14:52:18;99473.41;;;-3.65;78.96
38530;BME280;24301;54.332;48.386;2022-12-20T14:54:58;99466.81;;;-3.60;78.68
38530;BME280;24301;54.332;48.386;2022-12-20T15:08:24;99474.31;;;-3.47;78.89
38530;BME280;24301;54.332;48.386;2022-12-20T15:11:03;99474.78;;;-3.37;78.92
38530;BME280;24301;54.332;48.386;2022-12-20T15:13:41;99462.88;;;-3.35;78.70
38530;BME280;24301;54.332;48.386;2022-12-20T15:16:18;99468.16;;;-3.32;78.27
38530;BME280;24301;54.332;48.386;2022-12-20T15:18:46;99466.16;;;-3.38;78.13
38530;BME280;24301;54.332;48.386;2022-12-20T15:21:15;99455.66;;;-3.42;78.46
38530;BME280;24301;54.332;48.386;2022-12-20T15:23:49;99456.91;;;-3.52;77.83
38530;BME280;24301;54.332;48.386;2022-12-20T15:26:29;99449.69;;;-3.59;78.10
38530;BME280;24301;54.332;48.386;2022-12-20T15:29:24;99444.13;;;-3.51;78.48